createdAt,value
2023-03-15T00:00:16.364Z,9.711365
2023-03-15T00:01:16.390Z,9.711365
2023-03-15T00:02:16.424Z,9.711365
2023-03-15T00:03:16.508Z,9.711365
2023-03-15T00:04:16.358Z,9.711909
2023-03-15T00:05:16.331Z,9.711489
2023-03-15T00:06:16.341Z,9.711815
2023-03-15T00:07:16.313Z,9.711308
2023-03-15T00:08:16.331Z,9.711584
2023-03-15T00:09:16.302Z,9.711652
2023-03-15T00:10:16.993Z,9.711597
2023-03-15T00:11:16.306Z,9.711446
2023-03-15T00:12:16.286Z,9.711617
2023-03-15T00:13:16.265Z,9.711739
2023-03-15T00:14:16.244Z,9.711798
2023-03-15T00:15:16.247Z,9.711903
2023-03-15T00:16:16.273Z,9.711687
2023-03-15T00:17:16.238Z,9.711659
2023-03-15T00:18:16.240Z,9.711686
2023-03-15T00:19:16.244Z,9.711695
2023-03-15T00:20:16.210Z,9.711646
2023-03-15T00:21:17.186Z,9.711697
2023-03-15T00:22:16.202Z,9.711521
2023-03-15T00:27:17.371Z,9.711621
2023-03-15T00:28:17.373Z,9.711707
2023-03-15T00:29:17.378Z,9.711663
2023-03-15T00:30:17.354Z,9.711685
2023-03-15T00:31:17.427Z,9.711550
2023-03-15T00:32:17.327Z,9.711668
2023-03-15T00:33:17.335Z,9.711675
2023-03-15T00:34:17.313Z,9.711583
2023-03-15T00:35:17.308Z,9.711585
2023-03-15T00:36:17.307Z,9.711724
2023-03-15T00:37:17.725Z,9.711751
2023-03-15T00:38:17.306Z,9.711720
2023-03-15T00:39:17.313Z,9.711720
2023-03-15T00:40:17.286Z,9.711953
2023-03-15T00:41:17.261Z,9.712078
2023-03-15T00:42:17.250Z,9.711647
2023-03-15T00:43:17.290Z,9.711684
2023-03-15T00:44:17.247Z,9.711665
2023-03-15T00:45:17.247Z,9.711161
2023-03-15T00:46:18.283Z,9.711606
2023-03-15T00:47:17.240Z,9.711553
2023-03-15T00:48:17.217Z,9.711332
2023-03-15T00:49:18.133Z,9.711616
2023-03-15T00:50:17.198Z,9.711797
2023-03-15T00:51:17.177Z,9.711692
2023-03-15T00:52:17.242Z,9.711198
2023-03-15T00:53:17.152Z,9.711152
2023-03-15T00:54:17.185Z,9.711370
2023-03-15T00:55:17.142Z,9.711670
2023-03-15T00:56:17.642Z,9.711853
2023-03-15T00:57:17.134Z,9.711843
2023-03-15T00:58:17.146Z,9.711976
2023-03-15T00:59:17.124Z,9.711918
2023-03-15T01:00:17.100Z,9.711928
2023-03-15T01:01:17.157Z,9.711927
2023-03-15T01:02:17.112Z,9.711900
2023-03-15T01:03:17.164Z,9.711869
2023-03-15T01:04:17.070Z,9.711853
2023-03-15T01:05:17.075Z,9.711912
2023-03-15T01:06:17.080Z,9.711947
2023-03-15T01:07:17.729Z,9.711923
2023-03-15T01:08:17.070Z,9.711949
2023-03-15T01:09:17.070Z,9.711945
2023-03-15T01:10:17.034Z,9.711925
2023-03-15T01:11:17.012Z,9.711928
2023-03-15T01:12:17.001Z,9.711962
2023-03-15T01:13:17.016Z,9.712024
2023-03-15T01:14:17.018Z,9.711934
2023-03-15T01:15:16.981Z,9.711984
2023-03-15T01:16:17.011Z,9.711975
2023-03-15T01:17:16.966Z,9.711915
2023-03-15T01:18:17.756Z,9.712035
2023-03-15T01:19:16.974Z,9.712004
2023-03-15T01:20:16.957Z,9.711965
2023-03-15T01:21:16.963Z,9.711924
2023-03-15T01:22:16.929Z,9.711864
2023-03-15T01:23:17.921Z,9.711956
2023-03-15T01:24:16.925Z,9.711835
2023-03-15T01:25:16.899Z,9.711798
2023-03-15T01:26:16.904Z,9.711811
2023-03-15T01:27:16.882Z,9.711841
2023-03-15T01:28:16.896Z,9.711707
2023-03-15T01:29:16.887Z,9.711695
2023-03-15T01:30:16.884Z,9.711779
2023-03-15T01:31:16.888Z,9.711869
2023-03-15T01:32:16.855Z,9.711804
2023-03-15T01:33:16.852Z,9.711764
2023-03-15T01:34:16.831Z,9.711828
2023-03-15T01:35:16.836Z,9.711649
2023-03-15T01:36:16.814Z,9.711723
2023-03-15T01:37:16.813Z,9.711699
2023-03-15T01:38:16.828Z,9.711598
2023-03-15T01:39:16.797Z,9.711672
2023-03-15T01:40:16.788Z,9.711735
2023-03-15T01:41:16.779Z,9.711772
2023-03-15T01:42:16.774Z,9.711611
2023-03-15T01:43:16.808Z,9.711617
2023-03-15T01:44:16.761Z,9.711437
2023-03-15T01:45:16.741Z,9.711580
2023-03-15T01:46:16.764Z,9.711689
2023-03-15T01:47:16.722Z,9.711502
2023-03-15T01:48:16.704Z,9.711595
2023-03-15T01:49:16.742Z,9.711555
2023-03-15T01:50:16.725Z,9.711586
2023-03-15T01:51:16.730Z,9.711587
2023-03-15T01:52:16.712Z,9.711535
2023-03-15T01:53:17.680Z,9.711427
2023-03-15T01:54:16.676Z,9.711487
2023-03-15T01:55:16.724Z,9.711474
2023-03-15T01:56:16.662Z,9.711546
2023-03-15T01:57:16.661Z,9.711626
2023-03-15T01:58:16.646Z,9.712415
2023-03-15T01:59:16.670Z,9.713499
2023-03-15T02:00:16.672Z,9.712669
2023-03-15T02:01:16.660Z,9.711866
2023-03-15T02:02:16.754Z,9.711360
2023-03-15T02:03:16.627Z,9.711628
2023-03-15T02:04:16.608Z,9.711663
2023-03-15T02:05:16.580Z,9.711600
2023-03-15T02:06:16.650Z,9.711589
2023-03-15T02:07:16.585Z,9.711578
2023-03-15T02:08:16.572Z,9.711592
2023-03-15T02:09:16.565Z,9.711535
2023-03-15T02:10:16.546Z,9.711521
2023-03-15T02:11:16.557Z,9.711558
2023-03-15T02:12:16.573Z,9.711591
2023-03-15T02:13:16.531Z,9.711582
2023-03-15T02:14:16.524Z,9.711590
2023-03-15T02:15:16.513Z,9.711608
2023-03-15T02:16:16.523Z,9.711587
2023-03-15T02:17:16.534Z,9.711583
2023-03-15T02:18:16.742Z,9.711658
2023-03-15T02:19:16.497Z,9.711644
2023-03-15T02:20:16.512Z,9.711666
2023-03-15T02:21:16.460Z,9.711595
2023-03-15T02:22:16.451Z,9.711629
2023-03-15T02:23:16.442Z,9.711629
2023-03-15T02:24:16.447Z,9.711627
2023-03-15T02:25:16.438Z,9.711585
2023-03-15T02:26:16.467Z,9.711668
2023-03-15T02:27:16.463Z,9.711641
2023-03-15T02:28:16.424Z,9.711630
2023-03-15T02:29:16.410Z,9.711677
2023-03-15T02:30:16.390Z,9.711744
2023-03-15T02:31:16.413Z,9.711737
2023-03-15T02:32:16.380Z,9.711767
2023-03-15T02:33:16.396Z,9.711722
2023-03-15T02:34:16.357Z,9.711711
2023-03-15T02:35:16.392Z,9.711697
2023-03-15T02:36:17.115Z,9.711725
2023-03-15T02:37:17.250Z,9.711675
2023-03-15T02:38:16.355Z,9.711684
2023-03-15T02:39:16.366Z,9.711715
2023-03-15T02:40:17.660Z,9.711699
2023-03-15T02:41:16.292Z,9.711705
2023-03-15T02:42:16.302Z,9.711715
2023-03-15T02:43:16.296Z,9.711754
2023-03-15T02:44:16.275Z,9.711711
2023-03-15T02:45:16.271Z,9.711739
2023-03-15T02:46:16.355Z,9.711729
2023-03-15T02:47:16.264Z,9.711720
2023-03-15T02:48:16.279Z,9.711769
2023-03-15T02:49:16.245Z,9.711732
2023-03-15T02:50:16.253Z,9.711681
2023-03-15T02:51:16.240Z,9.711672
2023-03-15T02:52:17.163Z,9.711730
2023-03-15T02:53:16.230Z,9.711753
2023-03-15T02:54:16.225Z,9.711662
2023-03-15T02:55:16.249Z,9.711617
2023-03-15T02:56:16.193Z,9.711698
2023-03-15T02:57:16.217Z,9.711720
2023-03-15T02:58:16.187Z,9.711726
2023-03-15T02:59:17.163Z,9.711811
2023-03-15T03:00:16.181Z,9.711836
2023-03-15T03:01:16.222Z,9.711784
2023-03-15T03:02:16.196Z,9.711803
2023-03-15T03:03:16.191Z,9.711749
2023-03-15T03:04:16.136Z,9.711721
2023-03-15T03:05:16.122Z,9.711702
2023-03-15T03:06:16.132Z,9.711748
2023-03-15T03:07:16.110Z,9.711747
2023-03-15T03:08:16.139Z,9.711801
2023-03-15T03:09:16.249Z,9.711780
2023-03-15T03:10:16.131Z,9.711731
2023-03-15T03:11:16.115Z,9.711755
2023-03-15T03:12:16.130Z,9.711827
2023-03-15T03:13:16.078Z,9.711814
2023-03-15T03:14:16.253Z,9.711847
2023-03-15T03:15:16.667Z,9.711815
2023-03-15T03:16:16.793Z,9.711828
2023-03-15T03:17:16.067Z,9.711781
2023-03-15T03:18:16.022Z,9.711823
2023-03-15T03:19:16.067Z,9.711747
2023-03-15T03:20:16.032Z,9.711767
2023-03-15T03:21:16.007Z,9.711756
2023-03-15T03:22:15.998Z,9.711731
2023-03-15T03:23:15.984Z,9.711741
2023-03-15T03:24:15.975Z,9.711674
2023-03-15T03:25:16.984Z,9.711690
2023-03-15T03:26:15.960Z,9.711672
2023-03-15T03:27:15.951Z,9.711630
2023-03-15T03:28:15.953Z,9.711644
2023-03-15T03:29:15.951Z,9.711659
2023-03-15T03:30:15.961Z,9.711706
2023-03-15T03:31:16.017Z,9.711766
2023-03-15T03:32:15.931Z,9.711850
2023-03-15T03:33:15.908Z,9.711795
2023-03-15T03:34:15.927Z,9.711742
2023-03-15T03:35:16.270Z,9.711689
2023-03-15T03:36:16.900Z,9.711700
2023-03-15T03:37:15.890Z,9.711672
2023-03-15T03:38:15.853Z,9.711629
2023-03-15T03:39:15.877Z,9.711668
2023-03-15T03:40:15.846Z,9.711725
2023-03-15T03:41:15.844Z,9.711633
2023-03-15T03:42:15.822Z,9.711614
2023-03-15T03:43:15.814Z,9.711567
2023-03-15T03:44:15.829Z,9.711641
2023-03-15T03:45:16.769Z,9.711649
2023-03-15T03:46:16.868Z,9.711716
2023-03-15T03:47:15.810Z,9.711611
2023-03-15T03:48:15.781Z,9.711665
2023-03-15T03:49:15.770Z,9.711694
2023-03-15T03:50:15.776Z,9.711709
2023-03-15T03:51:15.764Z,9.711555
2023-03-15T03:52:16.609Z,9.711731
2023-03-15T03:53:15.764Z,9.711740
2023-03-15T03:54:17.585Z,9.711722
2023-03-15T03:55:16.735Z,9.711613
2023-03-15T03:56:15.718Z,9.711584
2023-03-15T03:57:16.653Z,9.711627
2023-03-15T03:58:15.702Z,9.711751
2023-03-15T03:59:15.732Z,9.711594
2023-03-15T04:00:15.763Z,9.711637
2023-03-15T04:01:15.734Z,9.711448
2023-03-15T04:02:15.750Z,9.711190
2023-03-15T04:03:15.658Z,9.711085
2023-03-15T04:04:15.669Z,9.711324
2023-03-15T04:05:15.640Z,9.711407
2023-03-15T04:06:15.645Z,9.711291
2023-03-15T04:07:17.091Z,9.711317
2023-03-15T04:08:16.638Z,9.711365
2023-03-15T04:09:15.659Z,9.711581
2023-03-15T04:10:15.611Z,9.711603
2023-03-15T04:11:16.177Z,9.711679
2023-03-15T04:12:15.697Z,9.711680
2023-03-15T04:13:15.580Z,9.711666
2023-03-15T04:14:15.599Z,9.711644
2023-03-15T04:15:15.592Z,9.711659
2023-03-15T04:16:16.292Z,9.711659
2023-03-15T04:17:15.539Z,9.711629
2023-03-15T04:18:16.150Z,9.711697
2023-03-15T04:19:16.164Z,9.711623
2023-03-15T04:20:16.246Z,9.711708
2023-03-15T04:21:15.523Z,9.711683
2023-03-15T04:22:15.497Z,9.711676
2023-03-15T04:23:15.495Z,9.711696
2023-03-15T04:24:15.489Z,9.711693
2023-03-15T04:25:15.479Z,9.711710
2023-03-15T04:26:15.452Z,9.711632
2023-03-15T04:27:15.468Z,9.711705
2023-03-15T04:28:15.476Z,9.711682
2023-03-15T04:29:15.508Z,9.711698
2023-03-15T04:30:15.461Z,9.711674
2023-03-15T04:31:15.482Z,9.711647
2023-03-15T04:32:15.441Z,9.711703
2023-03-15T04:33:15.433Z,9.711665
2023-03-15T04:34:15.423Z,9.711735
2023-03-15T04:35:15.399Z,9.711727
2023-03-15T04:36:16.249Z,9.711674
2023-03-15T04:37:15.375Z,9.711682
2023-03-15T04:38:15.394Z,9.711667
2023-03-15T04:39:15.367Z,9.711738
2023-03-15T04:40:15.358Z,9.711772
2023-03-15T04:41:15.372Z,9.711799
2023-03-15T04:42:15.354Z,9.711841
2023-03-15T04:43:15.356Z,9.711857
2023-03-15T04:44:15.358Z,9.711777
2023-03-15T04:45:15.326Z,9.711839
2023-03-15T04:46:15.349Z,9.711736
2023-03-15T04:47:15.304Z,9.711617
2023-03-15T04:48:15.298Z,9.711711
2023-03-15T04:49:15.319Z,9.711737
2023-03-15T04:50:15.315Z,9.711791
2023-03-15T04:51:15.297Z,9.711694
2023-03-15T04:52:15.296Z,9.711654
2023-03-15T04:53:15.267Z,9.711605
2023-03-15T04:54:16.181Z,9.711666
2023-03-15T04:55:15.252Z,9.711787
2023-03-15T04:56:15.231Z,9.711755
2023-03-15T04:57:16.186Z,9.711581
2023-03-15T04:58:15.245Z,9.711727
2023-03-15T04:59:15.263Z,9.711666
2023-03-15T05:00:15.205Z,9.711527
2023-03-15T05:01:15.259Z,9.711661
2023-03-15T05:02:16.788Z,9.711722
2023-03-15T05:03:15.185Z,9.711682
2023-03-15T05:04:15.190Z,9.711710
2023-03-15T05:05:15.196Z,9.711669
2023-03-15T05:06:15.193Z,9.711665
2023-03-15T05:07:15.179Z,9.711687
2023-03-15T05:08:15.135Z,9.711655
2023-03-15T05:09:15.124Z,9.711706
2023-03-15T05:10:15.122Z,9.711703
2023-03-15T05:11:15.124Z,9.711704
2023-03-15T05:12:15.144Z,9.711713
2023-03-15T05:13:15.132Z,9.711612
2023-03-15T05:14:15.102Z,9.711623
2023-03-15T05:15:15.127Z,9.711703
2023-03-15T05:16:15.130Z,9.711688
2023-03-15T05:17:15.077Z,9.711624
2023-03-15T05:18:15.077Z,9.711644
2023-03-15T05:19:15.760Z,9.711597
2023-03-15T05:20:15.057Z,9.711576
2023-03-15T05:21:15.046Z,9.711593
2023-03-15T05:22:15.050Z,9.711622
2023-03-15T05:23:15.058Z,9.711595
2023-03-15T05:24:15.017Z,9.711600
2023-03-15T05:25:15.000Z,9.711612
2023-03-15T05:26:15.668Z,9.711584
2023-03-15T05:27:14.980Z,9.711597
2023-03-15T05:28:14.981Z,9.711598
2023-03-15T05:29:15.970Z,9.711572
2023-03-15T05:30:14.971Z,9.711617
2023-03-15T05:31:14.951Z,9.711615
2023-03-15T05:32:14.966Z,9.711619
2023-03-15T05:33:14.973Z,9.711624
2023-03-15T05:34:14.924Z,9.711635
2023-03-15T05:35:15.939Z,9.711619
2023-03-15T05:36:14.921Z,9.711623
2023-03-15T05:37:14.913Z,9.711634
2023-03-15T05:38:17.171Z,9.711619
2023-03-15T05:39:14.900Z,9.711607
2023-03-15T05:40:14.887Z,9.711625
2023-03-15T05:41:14.891Z,9.711629
2023-03-15T05:42:14.870Z,9.711639
2023-03-15T05:43:14.870Z,9.711753
2023-03-15T05:44:14.853Z,9.711667
2023-03-15T05:45:14.851Z,9.711697
2023-03-15T05:46:14.928Z,9.711731
2023-03-15T05:47:14.852Z,9.711649
2023-03-15T05:48:14.826Z,9.711693
2023-03-15T05:49:14.839Z,9.711704
2023-03-15T05:50:14.814Z,9.711679
2023-03-15T05:51:14.811Z,9.711655
2023-03-15T05:52:15.679Z,9.711629
2023-03-15T05:53:14.808Z,9.711670
2023-03-15T05:54:14.792Z,9.711666
2023-03-15T05:55:14.777Z,9.711740
2023-03-15T05:56:14.769Z,9.711673
2023-03-15T05:57:14.758Z,9.711682
2023-03-15T05:58:14.746Z,9.711690
2023-03-15T05:59:14.736Z,9.711733
2023-03-15T06:00:14.741Z,9.711705
2023-03-15T06:01:14.725Z,9.711691
2023-03-15T06:02:14.736Z,9.711695
2023-03-15T06:03:14.796Z,9.711691
2023-03-15T06:04:14.768Z,9.711841
2023-03-15T06:05:14.712Z,9.711683
2023-03-15T06:06:14.682Z,9.711721
2023-03-15T06:07:14.684Z,9.711758
2023-03-15T06:08:14.680Z,9.711687
2023-03-15T06:09:14.672Z,9.711514
2023-03-15T06:10:14.653Z,9.711695
2023-03-15T06:11:14.638Z,9.711750
2023-03-15T06:12:14.642Z,9.711864
2023-03-15T06:13:16.620Z,9.711668
2023-03-15T06:14:14.622Z,9.711718
2023-03-15T06:15:14.610Z,9.711997
2023-03-15T06:16:14.692Z,9.711689
2023-03-15T06:17:14.604Z,9.711777
2023-03-15T06:18:14.616Z,9.711710
2023-03-15T06:19:14.613Z,9.711707
2023-03-15T06:20:14.580Z,9.712228
2023-03-15T06:21:14.574Z,9.712081
2023-03-15T06:22:14.564Z,9.711806
2023-03-15T06:23:14.584Z,9.711800
2023-03-15T06:24:14.546Z,9.711971
2023-03-15T06:25:16.185Z,9.712012
2023-03-15T06:26:14.546Z,9.712109
2023-03-15T06:27:14.725Z,9.712126
2023-03-15T06:28:14.557Z,9.711884
2023-03-15T06:29:14.507Z,9.711673
2023-03-15T06:30:16.959Z,9.711615
2023-03-15T06:31:15.546Z,9.711794
2023-03-15T06:32:14.497Z,9.711944
2023-03-15T06:33:14.512Z,9.711908
2023-03-15T06:34:14.476Z,9.711740
2023-03-15T06:35:14.480Z,9.711800
2023-03-15T06:36:14.444Z,9.711800
2023-03-15T06:37:16.280Z,9.711920
2023-03-15T06:38:18.681Z,9.711834
2023-03-15T06:39:14.460Z,9.711759
2023-03-15T06:40:15.271Z,9.711727
2023-03-15T06:41:14.419Z,9.711752
2023-03-15T06:42:14.401Z,9.711692
2023-03-15T06:43:14.393Z,9.711687
2023-03-15T06:44:14.390Z,9.711684
2023-03-15T06:45:14.400Z,9.711643
2023-03-15T06:46:14.418Z,9.711633
2023-03-15T06:47:14.388Z,9.711658
2023-03-15T06:48:14.362Z,9.711650
2023-03-15T06:49:14.383Z,9.711661
2023-03-15T06:50:14.327Z,9.711624
2023-03-15T06:51:14.338Z,9.711606
2023-03-15T06:52:14.338Z,9.711597
2023-03-15T06:53:15.144Z,9.711658
2023-03-15T06:54:14.329Z,9.711655
2023-03-15T06:55:14.298Z,9.711672
2023-03-15T06:56:16.244Z,9.711638
2023-03-15T06:57:14.289Z,9.711588
2023-03-15T06:58:15.197Z,9.711630
2023-03-15T06:59:14.504Z,9.711636
2023-03-15T07:00:14.387Z,9.711597
2023-03-15T07:01:14.805Z,9.711576
2023-03-15T07:02:14.353Z,9.711575
2023-03-15T07:03:15.139Z,9.711599
2023-03-15T07:04:14.240Z,9.711631
2023-03-15T07:05:14.254Z,9.711602
2023-03-15T07:06:14.226Z,9.711583
2023-03-15T07:07:14.222Z,9.711619
2023-03-15T07:08:14.232Z,9.711569
2023-03-15T07:09:14.216Z,9.711645
2023-03-15T07:10:14.233Z,9.711589
2023-03-15T07:11:14.398Z,9.711646
2023-03-15T07:12:14.704Z,9.711545
2023-03-15T07:13:14.173Z,9.711580
2023-03-15T07:14:14.200Z,9.711588
2023-03-15T07:15:16.103Z,9.711572
2023-03-15T07:16:14.311Z,9.711561
2023-03-15T07:17:14.128Z,9.711467
2023-03-15T07:18:14.142Z,9.711469
2023-03-15T07:19:14.114Z,9.711557
2023-03-15T07:20:14.111Z,9.711561
2023-03-15T07:21:14.113Z,9.711548
2023-03-15T07:22:14.119Z,9.711655
2023-03-15T07:23:14.104Z,9.711585
2023-03-15T07:24:14.110Z,9.711554
2023-03-15T07:25:14.083Z,9.711571
2023-03-15T07:26:14.056Z,9.711551
2023-03-15T07:27:16.073Z,9.711582
2023-03-15T07:28:15.050Z,9.711736
2023-03-15T07:29:14.305Z,9.711771
2023-03-15T07:30:14.090Z,9.711775
2023-03-15T07:31:14.711Z,9.711732
2023-03-15T07:32:14.070Z,9.711745
2023-03-15T07:33:14.045Z,9.711808
2023-03-15T07:34:13.997Z,9.711827
2023-03-15T07:35:13.981Z,9.711738
2023-03-15T07:36:14.009Z,9.711699
2023-03-15T07:37:14.010Z,9.711761
2023-03-15T07:38:13.954Z,9.711773
2023-03-15T07:39:15.686Z,9.711667
2023-03-15T07:40:14.687Z,9.711752
2023-03-15T07:41:13.933Z,9.711834
2023-03-15T07:42:13.938Z,9.712044
2023-03-15T07:43:13.945Z,9.711984
2023-03-15T07:44:13.959Z,9.711821
2023-03-15T07:45:13.957Z,9.711764
2023-03-15T07:46:13.928Z,9.711778
2023-03-15T07:47:13.884Z,9.711632
2023-03-15T07:48:13.880Z,9.711741
2023-03-15T07:49:13.847Z,9.711920
2023-03-15T07:50:16.925Z,9.711756
2023-03-15T07:51:14.861Z,9.711944
2023-03-15T07:52:13.894Z,9.711883
2023-03-15T07:53:13.848Z,9.711893
2023-03-15T07:54:13.842Z,9.711657
2023-03-15T07:55:13.841Z,9.711748
2023-03-15T07:56:13.820Z,9.711896
2023-03-15T07:57:13.834Z,9.711842
2023-03-15T07:58:13.815Z,9.711823
2023-03-15T07:59:14.705Z,9.711857
2023-03-15T08:00:13.763Z,9.711817
2023-03-15T08:01:13.798Z,9.711880
2023-03-15T08:02:14.751Z,9.711761
2023-03-15T08:03:13.895Z,9.711838
2023-03-15T08:04:13.749Z,9.711834
2023-03-15T08:05:13.764Z,9.711794
2023-03-15T08:06:13.751Z,9.711749
2023-03-15T08:07:14.694Z,9.711731
2023-03-15T08:08:13.714Z,9.711695
2023-03-15T08:09:13.682Z,9.711647
2023-03-15T08:10:13.687Z,9.711676
2023-03-15T08:11:13.827Z,9.711664
2023-03-15T08:12:13.701Z,9.711687
2023-03-15T08:13:13.730Z,9.711677
2023-03-15T08:14:13.671Z,9.711696
2023-03-15T08:15:13.667Z,9.711692
2023-03-15T08:16:13.728Z,9.711700
2023-03-15T08:17:14.191Z,9.711716
2023-03-15T08:18:13.631Z,9.711739
2023-03-15T08:19:14.288Z,9.711637
2023-03-15T08:20:13.634Z,9.711642
2023-03-15T08:21:13.610Z,9.711778
2023-03-15T08:22:13.619Z,9.711879
2023-03-15T08:23:14.215Z,9.711786
2023-03-15T08:24:13.616Z,9.711714
2023-03-15T08:25:13.576Z,9.711760
2023-03-15T08:26:13.613Z,9.711785
2023-03-15T08:27:13.552Z,9.711743
2023-03-15T08:28:13.546Z,9.711862
2023-03-15T08:29:13.544Z,9.711982
2023-03-15T08:30:13.548Z,9.711893
2023-03-15T08:31:13.563Z,9.711851
2023-03-15T08:32:13.530Z,9.711840
2023-03-15T08:33:13.512Z,9.711787
2023-03-15T08:34:13.525Z,9.711806
2023-03-15T08:35:15.792Z,9.711652
2023-03-15T08:36:14.546Z,9.711878
2023-03-15T08:37:13.463Z,9.711922
2023-03-15T08:38:13.479Z,9.711821
2023-03-15T08:39:13.489Z,9.711929
2023-03-15T08:40:13.479Z,9.711977
2023-03-15T08:41:13.475Z,9.712161
2023-03-15T08:42:13.519Z,9.712075
2023-03-15T08:43:13.443Z,9.711924
2023-03-15T08:44:13.430Z,9.711719
2023-03-15T08:45:14.209Z,9.711636
2023-03-15T08:46:13.430Z,9.711793
2023-03-15T08:47:13.403Z,9.711839
2023-03-15T08:48:13.404Z,9.711708
2023-03-15T08:49:14.191Z,9.711712
2023-03-15T08:50:13.416Z,9.711910
2023-03-15T08:51:13.385Z,9.711798
2023-03-15T08:52:13.356Z,9.711809
2023-03-15T08:53:13.350Z,9.711818
2023-03-15T08:54:13.361Z,9.711877
2023-03-15T08:55:13.796Z,9.711770
2023-03-15T08:56:13.322Z,9.711744
2023-03-15T08:57:13.324Z,9.711678
2023-03-15T08:58:13.324Z,9.711692
2023-03-15T08:59:19.403Z,9.711892
2023-03-15T09:00:15.328Z,9.711811
2023-03-15T09:01:13.300Z,9.711920
2023-03-15T09:02:13.881Z,9.711753
2023-03-15T09:03:13.280Z,9.711880
2023-03-15T09:04:13.323Z,9.711757
2023-03-15T09:05:13.275Z,9.711780
2023-03-15T09:06:13.239Z,9.711846
2023-03-15T09:07:13.234Z,9.711862
2023-03-15T09:08:13.253Z,9.711820
2023-03-15T09:09:13.296Z,9.711809
2023-03-15T09:10:13.207Z,9.711773
2023-03-15T09:11:13.254Z,9.711792
2023-03-15T09:12:13.192Z,9.711879
2023-03-15T09:13:13.183Z,9.711740
2023-03-15T09:14:13.304Z,9.711749
2023-03-15T09:15:13.185Z,9.711772
2023-03-15T09:16:13.169Z,9.711714
2023-03-15T09:17:13.201Z,9.711718
2023-03-15T09:18:13.150Z,9.711745
2023-03-15T09:19:13.152Z,9.711739
2023-03-15T09:20:14.151Z,9.711708
2023-03-15T09:21:13.119Z,9.711778
2023-03-15T09:22:16.547Z,9.711733
2023-03-15T09:23:15.801Z,9.711727
2023-03-15T09:24:13.775Z,9.711787
2023-03-15T09:25:13.113Z,9.711732
2023-03-15T09:26:13.129Z,9.711721
2023-03-15T09:27:13.082Z,9.711756
2023-03-15T09:28:13.327Z,9.711795
2023-03-15T09:29:13.623Z,9.711706
2023-03-15T09:30:13.152Z,9.711719
2023-03-15T09:31:13.171Z,9.711732
2023-03-15T09:32:13.031Z,9.711723
2023-03-15T09:33:13.082Z,9.711718
2023-03-15T09:34:13.043Z,9.711720
2023-03-15T09:35:13.769Z,9.711698
2023-03-15T09:36:13.329Z,9.711734
2023-03-15T09:37:12.987Z,9.711597
2023-03-15T09:38:13.001Z,9.711662
2023-03-15T09:39:13.009Z,9.711728
2023-03-15T09:40:13.023Z,9.711800
2023-03-15T09:41:12.968Z,9.711885
2023-03-15T09:42:13.983Z,9.711809
2023-03-15T09:43:12.952Z,9.711772
2023-03-15T09:44:12.984Z,9.711798
2023-03-15T09:45:12.944Z,9.711745
2023-03-15T09:46:13.033Z,9.711675
2023-03-15T09:47:12.931Z,9.711766
2023-03-15T09:48:12.920Z,9.711701
2023-03-15T09:49:12.901Z,9.711524
2023-03-15T09:50:12.904Z,9.711537
2023-03-15T09:51:12.899Z,9.711595
2023-03-15T09:52:13.674Z,9.711662
2023-03-15T09:53:12.930Z,9.711532
2023-03-15T09:54:12.871Z,9.711516
2023-03-15T09:55:12.884Z,9.711627
2023-03-15T09:56:12.877Z,9.711997
2023-03-15T09:57:12.830Z,9.711756
2023-03-15T09:58:12.840Z,9.711464
2023-03-15T09:59:12.839Z,9.711917
2023-03-15T10:00:13.811Z,9.712016
2023-03-15T10:01:12.941Z,9.711757
2023-03-15T10:02:12.849Z,9.711714
2023-03-15T10:03:13.751Z,9.711924
2023-03-15T10:04:12.832Z,9.712031
2023-03-15T10:05:12.795Z,9.711857
2023-03-15T10:06:12.771Z,9.711760
2023-03-15T10:07:13.311Z,9.711654
2023-03-15T10:08:12.761Z,9.712075
2023-03-15T10:09:12.761Z,9.712064
2023-03-15T10:10:12.747Z,9.711962
2023-03-15T10:11:12.756Z,9.712047
2023-03-15T10:12:12.741Z,9.711716
2023-03-15T10:13:12.722Z,9.711582
2023-03-15T10:14:12.715Z,9.711513
2023-03-15T10:15:12.696Z,9.711436
2023-03-15T10:16:12.751Z,9.711420
2023-03-15T10:17:12.691Z,9.711496
2023-03-15T10:18:12.681Z,9.711487
2023-03-15T10:19:12.660Z,9.711391
2023-03-15T10:20:12.671Z,9.711453
2023-03-15T10:21:12.872Z,9.711454
2023-03-15T10:22:12.662Z,9.711370
2023-03-15T10:23:12.640Z,9.711391
2023-03-15T10:24:12.639Z,9.711338
2023-03-15T10:25:12.626Z,9.711461
2023-03-15T10:26:14.134Z,9.711529
2023-03-15T10:27:12.626Z,9.711413
2023-03-15T10:28:12.817Z,9.711337
2023-03-15T10:29:12.601Z,9.711278
2023-03-15T10:30:12.604Z,9.711350
2023-03-15T10:31:18.249Z,9.711390
2023-03-15T10:32:13.653Z,9.711461
2023-03-15T10:33:12.569Z,9.711667
2023-03-15T10:34:12.584Z,9.711920
2023-03-15T10:35:12.565Z,9.711921
2023-03-15T10:36:12.602Z,9.711933
2023-03-15T10:37:12.512Z,9.711858
2023-03-15T10:38:12.514Z,9.711794
2023-03-15T10:39:12.710Z,9.711880
2023-03-15T10:40:12.622Z,9.711963
2023-03-15T10:41:15.244Z,9.712043
2023-03-15T10:42:12.991Z,9.712184
2023-03-15T10:43:12.510Z,9.712349
2023-03-15T10:44:12.494Z,9.712381
2023-03-15T10:45:12.493Z,9.712354
2023-03-15T10:46:12.507Z,9.712246
2023-03-15T10:47:22.471Z,9.712155
2023-03-15T10:48:14.875Z,9.712323
2023-03-15T10:49:12.472Z,9.712350
2023-03-15T10:50:12.444Z,9.712476
2023-03-15T10:51:12.636Z,9.712496
2023-03-15T10:52:14.218Z,9.712581
2023-03-15T10:53:12.399Z,9.712469
2023-03-15T10:54:12.383Z,9.712246
2023-03-15T10:55:12.374Z,9.712103
2023-03-15T10:56:12.382Z,9.712018
2023-03-15T10:57:12.386Z,9.712115
2023-03-15T10:58:12.340Z,9.712364
2023-03-15T10:59:13.220Z,9.712307
2023-03-15T11:00:14.258Z,9.712014
2023-03-15T11:01:12.393Z,9.712026
2023-03-15T11:02:12.321Z,9.711992
2023-03-15T11:03:12.355Z,9.711843
2023-03-15T11:04:12.334Z,9.711817
2023-03-15T11:05:12.285Z,9.711731
2023-03-15T11:06:12.286Z,9.711679
2023-03-15T11:07:12.270Z,9.711659
2023-03-15T11:08:12.258Z,9.711686
2023-03-15T11:09:12.248Z,9.711695
2023-03-15T11:10:12.236Z,9.711656
2023-03-15T11:11:12.261Z,9.711740
2023-03-15T11:12:12.276Z,9.711700
2023-03-15T11:13:13.244Z,9.711675
2023-03-15T11:14:12.225Z,9.711686
2023-03-15T11:15:12.222Z,9.711664
2023-03-15T11:16:12.230Z,9.711692
2023-03-15T11:17:12.194Z,9.711714
2023-03-15T11:18:12.185Z,9.711682
2023-03-15T11:19:12.247Z,9.711654
2023-03-15T11:20:12.681Z,9.711643
2023-03-15T11:21:12.149Z,9.711733
2023-03-15T11:22:12.156Z,9.711843
2023-03-15T11:23:12.227Z,9.711852
2023-03-15T11:24:12.158Z,9.711683
2023-03-15T11:25:12.203Z,9.711745
2023-03-15T11:26:14.129Z,9.711666
2023-03-15T11:27:14.142Z,9.711694
2023-03-15T11:28:12.117Z,9.711685
2023-03-15T11:29:12.099Z,9.711628
2023-03-15T11:30:13.125Z,9.711682
2023-03-15T11:31:12.108Z,9.711720
2023-03-15T11:32:12.069Z,9.711762
2023-03-15T11:33:12.070Z,9.711686
2023-03-15T11:34:12.094Z,9.711695
2023-03-15T11:35:12.061Z,9.711717
2023-03-15T11:36:12.509Z,9.711645
2023-03-15T11:37:13.284Z,9.711637
2023-03-15T11:38:15.455Z,9.711598
2023-03-15T11:39:13.052Z,9.711637
2023-03-15T11:40:14.026Z,9.711669
2023-03-15T11:41:13.861Z,9.711755
2023-03-15T11:42:12.051Z,9.711755
2023-03-15T11:43:12.009Z,9.711678
2023-03-15T11:44:11.987Z,9.711694
2023-03-15T11:45:12.736Z,9.711653
2023-03-15T11:46:12.039Z,9.711679
2023-03-15T11:47:12.115Z,9.711680
2023-03-15T11:48:11.934Z,9.711742